sensor_id;sensor_type;location;lat;lon;timestamp;pressure;altitude;pressure_sealevel;temperature
75273;BMP280;63869;52.344;16.928;2023-07-29T00:02:10;100070.31;;;17.83
75273;BMP280;63869;52.344;16.928;2023-07-29T00:04:35;100075.13;;;17.79
75273;BMP280;63869;52.344;16.928;2023-07-29T00:07:00;100078.78;;;17.76
75273;BMP280;63869;52.344;16.928;2023-07-29T00:09:25;100081.69;;;17.72
75273;BMP280;63869;52.344;16.928;2023-07-29T00:11:51;100077.72;;;17.68
75273;BMP280;63869;52.344;16.928;2023-07-29T00:14:16;100081.06;;;17.63
75273;BMP280;63869;52.344;16.928;2023-07-29T00:16:41;100080.50;;;17.59
75273;BMP280;63869;52.344;16.928;2023-07-29T00:19:07;100076.78;;;17.56
75273;BMP280;63869;52.344;16.928;2023-07-29T00:21:33;100076.50;;;17.54
75273;BMP280;63869;52.344;16.928;2023-07-29T00:23:58;100080.63;;;17.50
75273;BMP280;63869;52.344;16.928;2023-07-29T00:26:26;100078.56;;;17.45
75273;BMP280;63869;52.344;16.928;2023-07-29T00:28:53;100080.72;;;17.41
75273;BMP280;63869;52.344;16.928;2023-07-29T00:31:19;100083.50;;;17.31
75273;BMP280;63869;52.344;16.928;2023-07-29T00:33:44;100068.41;;;17.25
75273;BMP280;63869;52.344;16.928;2023-07-29T00:36:09;100073.16;;;17.15
75273;BMP280;63869;52.344;16.928;2023-07-29T00:38:34;100067.69;;;17.10
75273;BMP280;63869;52.344;16.928;2023-07-29T00:41:00;100074.69;;;17.02
75273;BMP280;63869;52.344;16.928;2023-07-29T00:43:27;100070.66;;;16.97
75273;BMP280;63869;52.344;16.928;2023-07-29T00:45:52;100067.41;;;16.93
75273;BMP280;63869;52.344;16.928;2023-07-29T00:48:18;100069.28;;;16.87
75273;BMP280;63869;52.344;16.928;2023-07-29T00:50:43;100073.25;;;16.77
75273;BMP280;63869;52.344;16.928;2023-07-29T00:53:09;100075.41;;;16.73
75273;BMP280;63869;52.344;16.928;2023-07-29T00:55:34;100075.53;;;16.69
75273;BMP280;63869;52.344;16.928;2023-07-29T00:58:00;100068.84;;;16.65
75273;BMP280;63869;52.344;16.928;2023-07-29T01:00:26;100071.75;;;16.61
75273;BMP280;63869;52.344;16.928;2023-07-29T01:02:52;100075.84;;;16.56
75273;BMP280;63869;52.344;16.928;2023-07-29T01:05:19;100071.31;;;16.53
75273;BMP280;63869;52.344;16.928;2023-07-29T01:07:55;100071.06;;;16.51
75273;BMP280;63869;52.344;16.928;2023-07-29T01:13:06;100073.38;;;16.44
75273;BMP280;63869;52.344;16.928;2023-07-29T01:15:45;100062.19;;;16.36
75273;BMP280;63869;52.344;16.928;2023-07-29T01:18:14;100068.47;;;16.33
75273;BMP280;63869;52.344;16.928;2023-07-29T01:20:43;100062.53;;;16.29
75273;BMP280;63869;52.344;16.928;2023-07-29T01:23:09;100055.63;;;16.28
75273;BMP280;63869;52.344;16.928;2023-07-29T01:25:34;100064.94;;;16.27
75273;BMP280;63869;52.344;16.928;2023-07-29T01:28:00;100061.97;;;16.25
75273;BMP280;63869;52.344;16.928;2023-07-29T01:30:37;100060.47;;;16.24
75273;BMP280;63869;52.344;16.928;2023-07-29T01:33:04;100059.72;;;16.24
75273;BMP280;63869;52.344;16.928;2023-07-29T01:38:18;100062.59;;;16.20
75273;BMP280;63869;52.344;16.928;2023-07-29T01:40:45;100063.50;;;16.17
75273;BMP280;63869;52.344;16.928;2023-07-29T01:43:11;100066.94;;;16.17
75273;BMP280;63869;52.344;16.928;2023-07-29T01:45:36;100063.22;;;16.15
75273;BMP280;63869;52.344;16.928;2023-07-29T01:48:06;100065.63;;;16.13
75273;BMP280;63869;52.344;16.928;2023-07-29T01:50:32;100063.88;;;16.10
75273;BMP280;63869;52.344;16.928;2023-07-29T01:52:57;100064.19;;;16.03
75273;BMP280;63869;52.344;16.928;2023-07-29T01:55:23;100058.50;;;16.01
75273;BMP280;63869;52.344;16.928;2023-07-29T01:57:48;100063.13;;;16.00
75273;BMP280;63869;52.344;16.928;2023-07-29T02:00:13;100065.38;;;16.02
75273;BMP280;63869;52.344;16.928;2023-07-29T02:02:38;100061.19;;;16.01
75273;BMP280;63869;52.344;16.928;2023-07-29T02:05:03;100057.75;;;16.00
75273;BMP280;63869;52.344;16.928;2023-07-29T02:07:29;100065.56;;;15.98
75273;BMP280;63869;52.344;16.928;2023-07-29T02:09:54;100061.56;;;15.94
75273;BMP280;63869;52.344;16.928;2023-07-29T02:12:19;100060.50;;;15.91
75273;BMP280;63869;52.344;16.928;2023-07-29T02:14:45;100069.03;;;15.90
75273;BMP280;63869;52.344;16.928;2023-07-29T02:17:10;100067.56;;;15.89
75273;BMP280;63869;52.344;16.928;2023-07-29T02:19:35;100066.81;;;15.88
75273;BMP280;63869;52.344;16.928;2023-07-29T02:22:00;100063.63;;;15.90
75273;BMP280;63869;52.344;16.928;2023-07-29T02:24:25;100058.25;;;15.90
75273;BMP280;63869;52.344;16.928;2023-07-29T02:26:51;100055.13;;;15.91
75273;BMP280;63869;52.344;16.928;2023-07-29T02:29:16;100066.66;;;15.92
75273;BMP280;63869;52.344;16.928;2023-07-29T02:31:41;100065.00;;;15.94
75273;BMP280;63869;52.344;16.928;2023-07-29T02:34:06;100071.13;;;15.95
75273;BMP280;63869;52.344;16.928;2023-07-29T02:36:32;100072.34;;;15.94
75273;BMP280;63869;52.344;16.928;2023-07-29T02:38:57;100069.34;;;15.92
75273;BMP280;63869;52.344;16.928;2023-07-29T02:41:22;100065.91;;;15.91
75273;BMP280;63869;52.344;16.928;2023-07-29T02:43:48;100069.34;;;15.92
75273;BMP280;63869;52.344;16.928;2023-07-29T02:46:13;100072.03;;;15.92
75273;BMP280;63869;52.344;16.928;2023-07-29T02:48:38;100065.91;;;15.91
75273;BMP280;63869;52.344;16.928;2023-07-29T02:51:03;100075.16;;;15.90
75273;BMP280;63869;52.344;16.928;2023-07-29T02:53:29;100072.19;;;15.88
75273;BMP280;63869;52.344;16.928;2023-07-29T02:55:54;100080.44;;;15.84
75273;BMP280;63869;52.344;16.928;2023-07-29T02:58:19;100080.31;;;15.79
75273;BMP280;63869;52.344;16.928;2023-07-29T03:00:44;100078.97;;;15.74
75273;BMP280;63869;52.344;16.928;2023-07-29T03:03:10;100080.19;;;15.73
75273;BMP280;63869;52.344;16.928;2023-07-29T03:05:35;100082.88;;;15.73
75273;BMP280;63869;52.344;16.928;2023-07-29T03:08:00;100082.50;;;15.66
75273;BMP280;63869;52.344;16.928;2023-07-29T03:10:26;100085.63;;;15.64
75273;BMP280;63869;52.344;16.928;2023-07-29T03:12:53;100085.94;;;15.66
75273;BMP280;63869;52.344;16.928;2023-07-29T03:15:18;100087.41;;;15.67
75273;BMP280;63869;52.344;16.928;2023-07-29T03:17:43;100090.44;;;15.60
75273;BMP280;63869;52.344;16.928;2023-07-29T03:20:09;100087.44;;;15.58
75273;BMP280;63869;52.344;16.928;2023-07-29T03:22:34;100090.72;;;15.62
75273;BMP280;63869;52.344;16.928;2023-07-29T03:24:59;100095.22;;;15.65
75273;BMP280;63869;52.344;16.928;2023-07-29T03:27:24;100088.63;;;15.66
75273;BMP280;63869;52.344;16.928;2023-07-29T03:29:50;100097.72;;;15.69
75273;BMP280;63869;52.344;16.928;2023-07-29T03:32:15;100095.78;;;15.69
75273;BMP280;63869;52.344;16.928;2023-07-29T03:34:40;100091.91;;;15.70
75273;BMP280;63869;52.344;16.928;2023-07-29T03:37:05;100095.16;;;15.74
75273;BMP280;63869;52.344;16.928;2023-07-29T03:39:31;100098.44;;;15.78
75273;BMP280;63869;52.344;16.928;2023-07-29T03:41:56;100097.81;;;15.83
75273;BMP280;63869;52.344;16.928;2023-07-29T03:44:22;100102.59;;;15.89
75273;BMP280;63869;52.344;16.928;2023-07-29T03:46:47;100099.56;;;15.96
75273;BMP280;63869;52.344;16.928;2023-07-29T03:49:12;100095.34;;;16.04
75273;BMP280;63869;52.344;16.928;2023-07-29T03:51:37;100100.50;;;16.16
75273;BMP280;63869;52.344;16.928;2023-07-29T03:54:02;100096.09;;;16.28
75273;BMP280;63869;52.344;16.928;2023-07-29T03:56:28;100097.84;;;16.40
75273;BMP280;63869;52.344;16.928;2023-07-29T03:58:53;100098.06;;;16.51
75273;BMP280;63869;52.344;16.928;2023-07-29T04:01:18;100091.28;;;16.56
75273;BMP280;63869;52.344;16.928;2023-07-29T04:03:44;100101.53;;;16.67
75273;BMP280;63869;52.344;16.928;2023-07-29T04:06:10;100101.28;;;16.79
75273;BMP280;63869;52.344;16.928;2023-07-29T04:08:35;100109.13;;;16.92
75273;BMP280;63869;52.344;16.928;2023-07-29T04:11:00;100115.00;;;17.05
75273;BMP280;63869;52.344;16.928;2023-07-29T04:13:25;100117.47;;;17.18
75273;BMP280;63869;52.344;16.928;2023-07-29T04:15:50;100112.22;;;17.29
75273;BMP280;63869;52.344;16.928;2023-07-29T04:18:16;100122.22;;;17.37
75273;BMP280;63869;52.344;16.928;2023-07-29T04:20:41;100116.41;;;17.45
75273;BMP280;63869;52.344;16.928;2023-07-29T04:23:06;100122.66;;;17.51
75273;BMP280;63869;52.344;16.928;2023-07-29T04:25:31;100126.41;;;17.53
75273;BMP280;63869;52.344;16.928;2023-07-29T04:27:56;100129.34;;;17.55
75273;BMP280;63869;52.344;16.928;2023-07-29T04:30:23;100130.09;;;17.56
75273;BMP280;63869;52.344;16.928;2023-07-29T04:32:48;100131.59;;;17.57
75273;BMP280;63869;52.344;16.928;2023-07-29T04:35:13;100129.84;;;17.54
75273;BMP280;63869;52.344;16.928;2023-07-29T04:37:39;100129.84;;;17.54
75273;BMP280;63869;52.344;16.928;2023-07-29T04:40:04;100125.66;;;17.53
75273;BMP280;63869;52.344;16.928;2023-07-29T04:42:30;100129.09;;;17.53
75273;BMP280;63869;52.344;16.928;2023-07-29T04:44:55;100127.16;;;17.54
75273;BMP280;63869;52.344;16.928;2023-07-29T04:47:20;100122.94;;;17.53
75273;BMP280;63869;52.344;16.928;2023-07-29T04:49:45;100117.78;;;17.55
75273;BMP280;63869;52.344;16.928;2023-07-29T04:52:11;100121.31;;;17.61
75273;BMP280;63869;52.344;16.928;2023-07-29T04:54:36;100118.53;;;17.70
75273;BMP280;63869;52.344;16.928;2023-07-29T04:57:01;100121.88;;;17.80
75273;BMP280;63869;52.344;16.928;2023-07-29T04:59:26;100121.28;;;17.90
75273;BMP280;63869;52.344;16.928;2023-07-29T05:01:52;100126.66;;;18.05
75273;BMP280;63869;52.344;16.928;2023-07-29T05:04:17;100119.91;;;18.15
75273;BMP280;63869;52.344;16.928;2023-07-29T05:06:42;100116.84;;;18.28
75273;BMP280;63869;52.344;16.928;2023-07-29T05:09:18;100110.16;;;18.43
75273;BMP280;63869;52.344;16.928;2023-07-29T05:11:45;100122.84;;;18.57
75273;BMP280;63869;52.344;16.928;2023-07-29T05:14:10;100121.50;;;18.68
75273;BMP280;63869;52.344;16.928;2023-07-29T05:16:36;100128.00;;;18.76
75273;BMP280;63869;52.344;16.928;2023-07-29T05:19:01;100125.13;;;18.85
75273;BMP280;63869;52.344;16.928;2023-07-29T05:21:26;100122.75;;;18.92
75273;BMP280;63869;52.344;16.928;2023-07-29T05:23:51;100118.34;;;19.01
75273;BMP280;63869;52.344;16.928;2023-07-29T05:26:16;100115.50;;;19.10
75273;BMP280;63869;52.344;16.928;2023-07-29T05:28:42;100122.22;;;19.20
75273;BMP280;63869;52.344;16.928;2023-07-29T05:31:07;100129.50;;;19.34
75273;BMP280;63869;52.344;16.928;2023-07-29T05:33:32;100123.44;;;19.45
75273;BMP280;63869;52.344;16.928;2023-07-29T05:35:57;100121.78;;;19.53
75273;BMP280;63869;52.344;16.928;2023-07-29T05:38:22;100120.81;;;19.61
75273;BMP280;63869;52.344;16.928;2023-07-29T05:40:48;100125.09;;;19.73
75273;BMP280;63869;52.344;16.928;2023-07-29T05:43:13;100125.16;;;19.85
75273;BMP280;63869;52.344;16.928;2023-07-29T05:45:39;100129.16;;;19.95
75273;BMP280;63869;52.344;16.928;2023-07-29T05:48:04;100122.31;;;20.05
75273;BMP280;63869;52.344;16.928;2023-07-29T05:50:30;100129.03;;;20.20
75273;BMP280;63869;52.344;16.928;2023-07-29T05:52:55;100136.19;;;20.29
75273;BMP280;63869;52.344;16.928;2023-07-29T05:55:20;100132.78;;;20.34
75273;BMP280;63869;52.344;16.928;2023-07-29T05:57:45;100133.53;;;20.46
75273;BMP280;63869;52.344;16.928;2023-07-29T06:00:11;100136.53;;;20.53
75273;BMP280;63869;52.344;16.928;2023-07-29T06:02:36;100130.63;;;20.66
75273;BMP280;63869;52.344;16.928;2023-07-29T06:05:01;100132.13;;;20.73
75273;BMP280;63869;52.344;16.928;2023-07-29T06:07:28;100138.81;;;20.83
75273;BMP280;63869;52.344;16.928;2023-07-29T06:09:55;100138.56;;;20.92
75273;BMP280;63869;52.344;16.928;2023-07-29T06:12:20;100132.91;;;21.01
75273;BMP280;63869;52.344;16.928;2023-07-29T06:14:46;100131.44;;;21.11
75273;BMP280;63869;52.344;16.928;2023-07-29T06:17:11;100135.38;;;21.21
75273;BMP280;63869;52.344;16.928;2023-07-29T06:19:36;100136.84;;;21.33
75273;BMP280;63869;52.344;16.928;2023-07-29T06:22:02;100144.00;;;21.48
75273;BMP280;63869;52.344;16.928;2023-07-29T06:24:29;100141.50;;;21.66
75273;BMP280;63869;52.344;16.928;2023-07-29T06:26:54;100145.66;;;21.84
75273;BMP280;63869;52.344;16.928;2023-07-29T06:29:19;100142.63;;;22.04
75273;BMP280;63869;52.344;16.928;2023-07-29T06:31:45;100144.53;;;22.26
75273;BMP280;63869;52.344;16.928;2023-07-29T06:34:10;100143.94;;;22.39
75273;BMP280;63869;52.344;16.928;2023-07-29T06:36:35;100136.94;;;22.49
75273;BMP280;63869;52.344;16.928;2023-07-29T06:39:00;100133.91;;;22.58
75273;BMP280;63869;52.344;16.928;2023-07-29T06:41:26;100138.34;;;22.61
75273;BMP280;63869;52.344;16.928;2023-07-29T06:43:51;100136.59;;;22.63
75273;BMP280;63869;52.344;16.928;2023-07-29T06:46:16;100142.03;;;22.69
75273;BMP280;63869;52.344;16.928;2023-07-29T06:48:42;100133.75;;;22.80
75273;BMP280;63869;52.344;16.928;2023-07-29T06:51:07;100139.31;;;22.99
75273;BMP280;63869;52.344;16.928;2023-07-29T06:53:32;100134.03;;;23.06
75273;BMP280;63869;52.344;16.928;2023-07-29T06:55:58;100134.78;;;23.07
75273;BMP280;63869;52.344;16.928;2023-07-29T06:58:25;100131.88;;;22.99
75273;BMP280;63869;52.344;16.928;2023-07-29T07:00:50;100127.47;;;22.91
75273;BMP280;63869;52.344;16.928;2023-07-29T07:03:15;100123.88;;;22.77
75273;BMP280;63869;52.344;16.928;2023-07-29T07:05:40;100127.22;;;22.59
75273;BMP280;63869;52.344;16.928;2023-07-29T07:08:06;100113.75;;;22.37
75273;BMP280;63869;52.344;16.928;2023-07-29T07:10:31;100109.13;;;22.15
75273;BMP280;63869;52.344;16.928;2023-07-29T07:12:58;100110.47;;;21.97
75273;BMP280;63869;52.344;16.928;2023-07-29T07:15:23;100106.53;;;21.93
75273;BMP280;63869;52.344;16.928;2023-07-29T07:17:49;100104.81;;;21.90
75273;BMP280;63869;52.344;16.928;2023-07-29T07:20:14;100109.75;;;21.91
75273;BMP280;63869;52.344;16.928;2023-07-29T07:22:39;100108.28;;;21.90
75273;BMP280;63869;52.344;16.928;2023-07-29T07:25:04;100105.13;;;21.75
75273;BMP280;63869;52.344;16.928;2023-07-29T07:27:30;100105.59;;;21.68
75273;BMP280;63869;52.344;16.928;2023-07-29T07:29:55;100101.91;;;21.65
75273;BMP280;63869;52.344;16.928;2023-07-29T07:32:20;100105.66;;;21.62
75273;BMP280;63869;52.344;16.928;2023-07-29T07:34:45;100103.13;;;21.70
75273;BMP280;63869;52.344;16.928;2023-07-29T07:37:10;100103.09;;;21.81
75273;BMP280;63869;52.344;16.928;2023-07-29T07:39:36;100098.63;;;21.89
75273;BMP280;63869;52.344;16.928;2023-07-29T07:42:01;100103.78;;;21.98
75273;BMP280;63869;52.344;16.928;2023-07-29T07:44:26;100103.00;;;22.03
75273;BMP280;63869;52.344;16.928;2023-07-29T07:46:54;100096.81;;;22.08
75273;BMP280;63869;52.344;16.928;2023-07-29T07:49:19;100100.97;;;22.20
75273;BMP280;63869;52.344;16.928;2023-07-29T07:51:45;100099.91;;;22.29
75273;BMP280;63869;52.344;16.928;2023-07-29T07:54:13;100104.09;;;22.30
75273;BMP280;63869;52.344;16.928;2023-07-29T07:56:38;100100.13;;;22.31
75273;BMP280;63869;52.344;16.928;2023-07-29T07:59:04;100089.97;;;22.31
75273;BMP280;63869;52.344;16.928;2023-07-29T08:01:35;100100.66;;;22.29
75273;BMP280;63869;52.344;16.928;2023-07-29T08:04:01;100089.97;;;22.31
75273;BMP280;63869;52.344;16.928;2023-07-29T08:06:27;100089.97;;;22.31
75273;BMP280;63869;52.344;16.928;2023-07-29T08:08:52;100083.25;;;22.38
75273;BMP280;63869;52.344;16.928;2023-07-29T08:11:17;100087.66;;;22.47
75273;BMP280;63869;52.344;16.928;2023-07-29T08:13:42;100087.81;;;22.60
75273;BMP280;63869;52.344;16.928;2023-07-29T08:16:07;100078.59;;;22.68
75273;BMP280;63869;52.344;16.928;2023-07-29T08:18:33;100078.75;;;22.76
75273;BMP280;63869;52.344;16.928;2023-07-29T08:21:00;100079.41;;;22.88
75273;BMP280;63869;52.344;16.928;2023-07-29T08:23:33;100076.84;;;23.01
75273;BMP280;63869;52.344;16.928;2023-07-29T08:25:59;100070.97;;;23.15
75273;BMP280;63869;52.344;16.928;2023-07-29T08:28:29;100075.00;;;23.33
75273;BMP280;63869;52.344;16.928;2023-07-29T08:30:55;100076.16;;;23.62
75273;BMP280;63869;52.344;16.928;2023-07-29T08:33:20;100070.66;;;23.86
75273;BMP280;63869;52.344;16.928;2023-07-29T08:35:45;100062.66;;;24.07
75273;BMP280;63869;52.344;16.928;2023-07-29T08:38:11;100066.78;;;24.14
75273;BMP280;63869;52.344;16.928;2023-07-29T08:40:37;100069.22;;;24.17
75273;BMP280;63869;52.344;16.928;2023-07-29T08:43:05;100064.69;;;24.20
75273;BMP280;63869;52.344;16.928;2023-07-29T08:45:34;100054.22;;;24.24
75273;BMP280;63869;52.344;16.928;2023-07-29T08:47:59;100063.22;;;24.19
75273;BMP280;63869;52.344;16.928;2023-07-29T08:50:27;100058.88;;;24.29
75273;BMP280;63869;52.344;16.928;2023-07-29T08:52:53;100061.19;;;24.38
75273;BMP280;63869;52.344;16.928;2023-07-29T08:55:18;100058.59;;;24.45
75273;BMP280;63869;52.344;16.928;2023-07-29T08:57:44;100054.69;;;24.54
75273;BMP280;63869;52.344;16.928;2023-07-29T09:00:09;100057.47;;;24.67
75273;BMP280;63869;52.344;16.928;2023-07-29T09:02:35;100052.44;;;24.84
75273;BMP280;63869;52.344;16.928;2023-07-29T09:05:01;100052.97;;;24.96
75273;BMP280;63869;52.344;16.928;2023-07-29T09:07:26;100047.44;;;25.02
75273;BMP280;63869;52.344;16.928;2023-07-29T09:09:52;100049.19;;;25.12
75273;BMP280;63869;52.344;16.928;2023-07-29T09:12:17;100044.03;;;25.22
75273;BMP280;63869;52.344;16.928;2023-07-29T09:14:42;100050.53;;;25.32
75273;BMP280;63869;52.344;16.928;2023-07-29T09:17:08;100042.22;;;25.37
75273;BMP280;63869;52.344;16.928;2023-07-29T09:19:34;100044.03;;;25.35
75273;BMP280;63869;52.344;16.928;2023-07-29T09:21:59;100042.50;;;25.47
75273;BMP280;63869;52.344;16.928;2023-07-29T09:24:25;100045.44;;;25.62
75273;BMP280;63869;52.344;16.928;2023-07-29T09:26:50;100044.88;;;25.77
75273;BMP280;63869;52.344;16.928;2023-07-29T09:29:16;100051.56;;;25.89
75273;BMP280;63869;52.344;16.928;2023-07-29T09:31:46;100043.88;;;26.08
75273;BMP280;63869;52.344;16.928;2023-07-29T09:34:11;100042.94;;;26.26
75273;BMP280;63869;52.344;16.928;2023-07-29T09:36:41;100045.69;;;26.47
75273;BMP280;63869;52.344;16.928;2023-07-29T09:39:10;100049.00;;;26.53
75273;BMP280;63869;52.344;16.928;2023-07-29T09:41:35;100047.16;;;26.48
75273;BMP280;63869;52.344;16.928;2023-07-29T09:44:01;100040.97;;;26.55
75273;BMP280;63869;52.344;16.928;2023-07-29T09:46:33;100037.53;;;26.62
75273;BMP280;63869;52.344;16.928;2023-07-29T09:48:59;100040.97;;;26.84
75273;BMP280;63869;52.344;16.928;2023-07-29T09:51:24;100051.50;;;27.00
75273;BMP280;63869;52.344;16.928;2023-07-29T09:53:50;100042.75;;;27.09
75273;BMP280;63869;52.344;16.928;2023-07-29T09:56:15;100032.22;;;27.28
75273;BMP280;63869;52.344;16.928;2023-07-29T09:58:42;100032.81;;;27.42
75273;BMP280;63869;52.344;16.928;2023-07-29T10:01:08;100032.97;;;27.37
75273;BMP280;63869;52.344;16.928;2023-07-29T10:03:33;100030.78;;;27.43
75273;BMP280;63869;52.344;16.928;2023-07-29T10:06:02;100030.59;;;27.48
75273;BMP280;63869;52.344;16.928;2023-07-29T10:08:28;100028.25;;;27.52
75273;BMP280;63869;52.344;16.928;2023-07-29T10:10:54;100018.19;;;27.62
75273;BMP280;63869;52.344;16.928;2023-07-29T10:13:20;100011.09;;;27.74
75273;BMP280;63869;52.344;16.928;2023-07-29T10:15:45;100008.72;;;27.86
75273;BMP280;63869;52.344;16.928;2023-07-29T10:18:10;99999.34;;;28.04
75273;BMP280;63869;52.344;16.928;2023-07-29T10:20:36;100003.22;;;28.09
75273;BMP280;63869;52.344;16.928;2023-07-29T10:23:03;100000.28;;;28.07
75273;BMP280;63869;52.344;16.928;2023-07-29T10:25:37;100000.81;;;28.13
75273;BMP280;63869;52.344;16.928;2023-07-29T10:28:07;99991.63;;;28.10
75273;BMP280;63869;52.344;16.928;2023-07-29T10:30:32;99992.56;;;28.13
75273;BMP280;63869;52.344;16.928;2023-07-29T10:32:59;99980.28;;;27.99
75273;BMP280;63869;52.344;16.928;2023-07-29T10:35:26;99974.06;;;27.98
75273;BMP280;63869;52.344;16.928;2023-07-29T10:37:51;99970.78;;;28.00
75273;BMP280;63869;52.344;16.928;2023-07-29T10:40:18;99963.78;;;28.14
75273;BMP280;63869;52.344;16.928;2023-07-29T10:45:39;99961.53;;;28.43
75273;BMP280;63869;52.344;16.928;2023-07-29T10:48:39;99961.53;;;28.43
75273;BMP280;63869;52.344;16.928;2023-07-29T10:50:50;99961.34;;;28.48
75273;BMP280;63869;52.344;16.928;2023-07-29T10:53:16;99962.81;;;28.49
75273;BMP280;63869;52.344;16.928;2023-07-29T10:55:41;99953.38;;;28.60
75273;BMP280;63869;52.344;16.928;2023-07-29T10:58:13;99951.88;;;28.74
75273;BMP280;63869;52.344;16.928;2023-07-29T11:00:42;99963.06;;;28.76
75273;BMP280;63869;52.344;16.928;2023-07-29T11:03:12;99965.13;;;28.68
75273;BMP280;63869;52.344;16.928;2023-07-29T11:05:43;99962.31;;;28.76
75273;BMP280;63869;52.344;16.928;2023-07-29T11:08:18;99938.75;;;28.90
75273;BMP280;63869;52.344;16.928;2023-07-29T11:10:44;99939.81;;;29.02
75273;BMP280;63869;52.344;16.928;2023-07-29T11:13:10;99934.06;;;29.15
75273;BMP280;63869;52.344;16.928;2023-07-29T11:15:37;99928.91;;;29.36
75273;BMP280;63869;52.344;16.928;2023-07-29T11:18:03;99929.97;;;29.65
75273;BMP280;63869;52.344;16.928;2023-07-29T11:20:30;99925.53;;;29.70
75273;BMP280;63869;52.344;16.928;2023-07-29T11:22:57;99920.56;;;29.68
75273;BMP280;63869;52.344;16.928;2023-07-29T11:25:23;99922.81;;;29.45
75273;BMP280;63869;52.344;16.928;2023-07-29T11:27:53;99925.03;;;29.39
75273;BMP280;63869;52.344;16.928;2023-07-29T11:30:19;99917.28;;;29.20
75273;BMP280;63869;52.344;16.928;2023-07-29T11:32:44;99913.19;;;29.29
75273;BMP280;63869;52.344;16.928;2023-07-29T11:35:11;99904.75;;;29.27
75273;BMP280;63869;52.344;16.928;2023-07-29T11:37:38;99903.00;;;29.39
75273;BMP280;63869;52.344;16.928;2023-07-29T11:40:03;99898.66;;;29.53
75273;BMP280;63869;52.344;16.928;2023-07-29T11:42:31;99909.75;;;29.46
75273;BMP280;63869;52.344;16.928;2023-07-29T11:44:57;99893.34;;;29.31
75273;BMP280;63869;52.344;16.928;2023-07-29T11:47:24;99889.75;;;29.20
75273;BMP280;63869;52.344;16.928;2023-07-29T11:49:49;99882.19;;;29.21
75273;BMP280;63869;52.344;16.928;2023-07-29T11:52:14;99878.88;;;29.22
75273;BMP280;63869;52.344;16.928;2023-07-29T11:54:43;99883.91;;;29.16
75273;BMP280;63869;52.344;16.928;2023-07-29T11:57:09;99878.63;;;29.11
75273;BMP280;63869;52.344;16.928;2023-07-29T11:59:34;99878.72;;;28.96
75273;BMP280;63869;52.344;16.928;2023-07-29T12:02:00;99877.38;;;28.72
75273;BMP280;63869;52.344;16.928;2023-07-29T12:04:25;99870.81;;;28.67
75273;BMP280;63869;52.344;16.928;2023-07-29T12:06:51;99873.75;;;28.69
75273;BMP280;63869;52.344;16.928;2023-07-29T12:09:16;99867.06;;;28.80
75273;BMP280;63869;52.344;16.928;2023-07-29T12:11:41;99865.31;;;28.92
75273;BMP280;63869;52.344;16.928;2023-07-29T12:14:07;99864.34;;;29.30
75273;BMP280;63869;52.344;16.928;2023-07-29T12:16:39;99862.50;;;29.49
75273;BMP280;63869;52.344;16.928;2023-07-29T12:19:04;99857.25;;;29.61
75273;BMP280;63869;52.344;16.928;2023-07-29T12:21:30;99848.66;;;29.91
75273;BMP280;63869;52.344;16.928;2023-07-29T12:23:55;99835.66;;;30.18
75273;BMP280;63869;52.344;16.928;2023-07-29T12:26:20;99835.50;;;30.43
75273;BMP280;63869;52.344;16.928;2023-07-29T12:28:46;99825.91;;;30.71
75273;BMP280;63869;52.344;16.928;2023-07-29T12:31:12;99825.19;;;30.80
75273;BMP280;63869;52.344;16.928;2023-07-29T12:33:37;99827.56;;;30.84
75273;BMP280;63869;52.344;16.928;2023-07-29T12:36:04;99813.31;;;30.87
75273;BMP280;63869;52.344;16.928;2023-07-29T12:38:29;99798.63;;;30.85
75273;BMP280;63869;52.344;16.928;2023-07-29T12:40:55;99790.84;;;31.00
75273;BMP280;63869;52.344;16.928;2023-07-29T12:43:20;99785.91;;;31.18
75273;BMP280;63869;52.344;16.928;2023-07-29T12:45:45;99799.00;;;31.27
75273;BMP280;63869;52.344;16.928;2023-07-29T12:48:11;99793.16;;;31.23
75273;BMP280;63869;52.344;16.928;2023-07-29T12:50:36;99792.00;;;31.26
75273;BMP280;63869;52.344;16.928;2023-07-29T12:53:02;99783.75;;;31.16
75273;BMP280;63869;52.344;16.928;2023-07-29T12:55:27;99791.09;;;30.95
75273;BMP280;63869;52.344;16.928;2023-07-29T12:57:52;99791.75;;;30.76
75273;BMP280;63869;52.344;16.928;2023-07-29T13:00:18;99791.56;;;30.55
75273;BMP280;63869;52.344;16.928;2023-07-29T13:02:43;99797.00;;;30.45
75273;BMP280;63869;52.344;16.928;2023-07-29T13:05:09;99792.38;;;30.48
75273;BMP280;63869;52.344;16.928;2023-07-29T13:07:36;99788.78;;;30.55
75273;BMP280;63869;52.344;16.928;2023-07-29T13:10:01;99783.81;;;30.44
75273;BMP280;63869;52.344;16.928;2023-07-29T13:12:26;99781.22;;;30.19
75273;BMP280;63869;52.344;16.928;2023-07-29T13:14:51;99780.00;;;30.12
75273;BMP280;63869;52.344;16.928;2023-07-29T13:17:16;99778.97;;;30.08
75273;BMP280;63869;52.344;16.928;2023-07-29T13:19:42;99771.41;;;30.08
75273;BMP280;63869;52.344;16.928;2023-07-29T13:22:07;99775.22;;;30.13
75273;BMP280;63869;52.344;16.928;2023-07-29T13:24:32;99770.81;;;30.27
75273;BMP280;63869;52.344;16.928;2023-07-29T13:26:57;99761.72;;;30.17
75273;BMP280;63869;52.344;16.928;2023-07-29T13:29:22;99754.34;;;30.19
75273;BMP280;63869;52.344;16.928;2023-07-29T13:31:48;99766.94;;;30.13
75273;BMP280;63869;52.344;16.928;2023-07-29T13:34:13;99765.78;;;29.89
75273;BMP280;63869;52.344;16.928;2023-07-29T13:36:39;99760.69;;;29.51
75273;BMP280;63869;52.344;16.928;2023-07-29T13:39:04;99782.13;;;29.01
75273;BMP280;63869;52.344;16.928;2023-07-29T13:41:29;99809.00;;;27.66
75273;BMP280;63869;52.344;16.928;2023-07-29T13:43:54;99801.59;;;26.55
75273;BMP280;63869;52.344;16.928;2023-07-29T13:46:20;99804.63;;;25.64
75273;BMP280;63869;52.344;16.928;2023-07-29T13:48:46;99803.16;;;24.54